createdAt,value
2019-05-19T00:01:59.459Z,12.48
2019-05-19T00:04:29.391Z,12.57
2019-05-19T00:06:59.335Z,12.59
2019-05-19T00:12:08.609Z,12.51
2019-05-19T00:14:38.863Z,12.52
2019-05-19T00:17:08.828Z,12.41
2019-05-19T00:19:39.116Z,12.28
2019-05-19T00:22:09.325Z,11.98
2019-05-19T00:24:39.546Z,12.06
2019-05-19T00:29:48.805Z,12.23
2019-05-19T00:34:58.652Z,12.38
2019-05-19T00:37:28.590Z,12.39
2019-05-19T00:39:58.509Z,12.25
2019-05-19T00:42:28.803Z,12.27
2019-05-19T00:44:58.741Z,12.29
2019-05-19T00:47:28.680Z,11.96
2019-05-19T00:49:58.957Z,11.94
2019-05-19T00:52:29.167Z,12.05
2019-05-19T00:54:59.121Z,12.08
2019-05-19T00:57:29.405Z,12.19
2019-05-19T00:59:59.320Z,12.21
2019-05-19T01:05:08.884Z,12.13
2019-05-19T01:07:39.107Z,12.08
2019-05-19T01:10:09.353Z,11.77
2019-05-19T01:12:39.287Z,11.68
2019-05-19T01:15:09.559Z,11.70
2019-05-19T01:17:39.527Z,11.74
2019-05-19T01:20:09.817Z,11.69
2019-05-19T01:22:39.732Z,11.77
2019-05-19T01:27:49.356Z,11.80
2019-05-19T01:30:19.544Z,11.76
2019-05-19T01:32:49.488Z,11.74
2019-05-19T01:35:19.726Z,11.60
2019-05-19T01:37:49.939Z,11.66
2019-05-19T01:40:20.153Z,11.73
2019-05-19T01:45:29.426Z,11.78
2019-05-19T01:50:38.710Z,11.56
2019-05-19T01:55:48.512Z,11.69
2019-05-19T01:58:18.453Z,11.52
2019-05-19T02:00:48.397Z,11.54
2019-05-19T02:03:18.670Z,11.65
2019-05-19T02:08:28.226Z,11.04
2019-05-19T02:10:58.159Z,11.18
2019-05-19T02:13:28.109Z,11.26
2019-05-19T02:18:37.709Z,11.40
2019-05-19T02:21:07.644Z,11.41
2019-05-19T02:23:37.588Z,11.33
2019-05-19T02:26:07.523Z,11.26
2019-05-19T02:28:37.489Z,11.33
2019-05-19T02:33:46.744Z,11.25
2019-05-19T02:36:17.036Z,11.13
2019-05-19T02:46:45.369Z,11.09
2019-05-19T02:49:15.669Z,11.16
2019-05-19T02:51:46.001Z,11.05
2019-05-19T02:54:15.934Z,10.97
2019-05-19T02:56:45.859Z,11.05
2019-05-19T02:59:15.795Z,11.02
2019-05-19T03:01:45.727Z,11.08
2019-05-19T03:04:15.978Z,11.01
2019-05-19T03:06:45.894Z,10.98
2019-05-19T03:11:55.274Z,10.70
2019-05-19T03:17:04.485Z,10.89
2019-05-19T03:24:53.094Z,10.86
2019-05-19T03:27:23.389Z,10.66
2019-05-19T03:29:53.355Z,10.53
2019-05-19T03:32:23.304Z,10.64
2019-05-19T03:34:53.261Z,10.58
2019-05-19T03:37:23.538Z,10.64
2019-05-19T03:39:53.489Z,10.65
2019-05-19T03:42:23.692Z,10.64
2019-05-19T03:47:33.281Z,10.67
2019-05-19T03:50:03.213Z,10.60
2019-05-19T03:52:33.155Z,10.49
2019-05-19T03:55:03.379Z,10.52
2019-05-19T04:00:12.953Z,10.59
2019-05-19T04:02:42.872Z,10.47
2019-05-19T04:05:12.809Z,10.50
2019-05-19T04:10:22.446Z,10.42
2019-05-19T04:12:52.671Z,10.39
2019-05-19T04:15:22.608Z,10.38
2019-05-19T04:17:52.880Z,10.55
2019-05-19T04:23:02.169Z,10.72
2019-05-19T04:25:32.455Z,10.67
2019-05-19T04:28:02.388Z,10.70
2019-05-19T04:33:11.944Z,10.73
2019-05-19T04:38:21.467Z,11.11
2019-05-19T04:40:51.405Z,11.21
2019-05-19T04:46:01.253Z,11.41
2019-05-19T04:48:31.184Z,11.57
2019-05-19T04:51:01.133Z,11.67
2019-05-19T04:53:31.076Z,11.80
2019-05-19T04:58:40.337Z,11.98
2019-05-19T05:01:10.309Z,12.05
2019-05-19T05:03:40.252Z,12.21
2019-05-19T05:06:10.184Z,12.44
2019-05-19T05:11:19.457Z,12.60
2019-05-19T05:13:49.387Z,12.70
2019-05-19T05:16:19.323Z,12.83
2019-05-19T05:18:49.579Z,12.96
2019-05-19T05:23:59.188Z,13.21
2019-05-19T05:26:29.135Z,13.33
2019-05-19T05:28:59.088Z,13.39
2019-05-19T05:31:29.011Z,13.59
2019-05-19T05:36:38.270Z,13.57
2019-05-19T05:39:08.199Z,13.61
2019-05-19T05:41:38.148Z,13.60
2019-05-19T05:46:47.426Z,13.76
2019-05-19T05:49:17.401Z,13.86
2019-05-19T05:51:47.365Z,14.03
2019-05-19T05:54:17.288Z,14.08
2019-05-19T05:56:47.238Z,14.06
2019-05-19T06:01:56.557Z,14.25
2019-05-19T06:04:26.495Z,14.33
2019-05-19T06:06:56.446Z,14.40
2019-05-19T06:09:26.382Z,14.40
2019-05-19T06:14:36.027Z,14.68
2019-05-19T06:19:45.660Z,14.88
2019-05-19T06:27:37.107Z,14.99
2019-05-19T06:30:08.763Z,15.13
2019-05-19T06:35:16.603Z,15.94
2019-05-19T06:37:46.893Z,15.89
2019-05-19T06:40:16.845Z,16.14
2019-05-19T06:42:46.791Z,16.25
2019-05-19T06:45:16.733Z,16.46
2019-05-19T06:50:26.044Z,16.51
2019-05-19T06:53:12.702Z,16.68
2019-05-19T06:55:26.304Z,16.62
2019-05-19T06:57:56.225Z,16.86
2019-05-19T07:03:05.509Z,16.94
2019-05-19T07:05:35.455Z,16.93
2019-05-19T07:08:05.401Z,16.99
2019-05-19T07:10:35.361Z,16.98
2019-05-19T07:18:24.716Z,17.42
2019-05-19T07:20:54.952Z,17.34
2019-05-19T07:23:28.128Z,17.30
2019-05-19T07:25:55.337Z,17.40
2019-05-19T07:33:43.951Z,17.68
2019-05-19T07:36:13.914Z,17.98
2019-05-19T07:38:43.871Z,17.95
2019-05-19T07:41:13.772Z,18.33
2019-05-19T07:46:23.364Z,18.34
2019-05-19T07:48:53.305Z,18.30
2019-05-19T07:51:23.253Z,18.46
2019-05-19T07:59:12.202Z,18.42
2019-05-19T08:01:42.147Z,18.56
2019-05-19T08:04:12.083Z,18.58
2019-05-19T08:09:21.785Z,18.84
2019-05-19T08:11:51.732Z,18.92
2019-05-19T08:14:21.678Z,19.01
2019-05-19T08:16:51.693Z,19.31
2019-05-19T08:19:21.651Z,19.39
2019-05-19T08:21:51.622Z,19.41
2019-05-19T08:24:21.604Z,19.42
2019-05-19T08:26:51.885Z,19.61
2019-05-19T08:29:22.098Z,19.62
2019-05-19T08:31:52.113Z,19.51
2019-05-19T08:34:22.066Z,19.67
2019-05-19T08:36:52.028Z,19.56
2019-05-19T08:42:01.312Z,19.79
2019-05-19T08:47:10.603Z,19.96
2019-05-19T08:49:40.537Z,20.09
2019-05-19T08:52:10.490Z,20.14
2019-05-19T08:57:19.789Z,20.23
2019-05-19T08:59:49.732Z,20.16
2019-05-19T09:04:59.287Z,20.23
2019-05-19T09:10:09.142Z,20.32
2019-05-19T09:12:39.100Z,20.32
2019-05-19T09:15:09.044Z,20.53
2019-05-19T09:17:38.999Z,20.39
2019-05-19T09:20:08.949Z,20.55
2019-05-19T09:22:38.896Z,20.67
2019-05-19T09:25:09.132Z,20.78
2019-05-19T09:27:39.168Z,20.66
2019-05-19T09:30:09.081Z,20.69
2019-05-19T09:35:18.363Z,21.03
2019-05-19T09:37:48.314Z,20.83
2019-05-19T09:40:18.259Z,21.13
2019-05-19T09:42:48.224Z,21.30
2019-05-19T09:45:18.465Z,21.04
2019-05-19T09:50:28.140Z,21.31
2019-05-19T09:55:37.783Z,21.49
2019-05-19T10:00:47.451Z,21.29
2019-05-19T10:03:19.635Z,21.68
2019-05-19T10:05:47.329Z,21.63
2019-05-19T10:08:17.278Z,21.78
2019-05-19T10:13:38.680Z,21.85
2019-05-19T10:16:08.614Z,21.81
2019-05-19T10:18:38.564Z,22.03
2019-05-19T10:23:48.210Z,21.84
2019-05-19T10:26:18.195Z,22.02
2019-05-19T10:28:48.436Z,22.00
2019-05-19T10:31:18.371Z,22.09
2019-05-19T10:33:48.749Z,22.16
2019-05-19T10:36:18.883Z,22.22
2019-05-19T10:38:48.853Z,22.31
2019-05-19T10:41:18.784Z,22.28
2019-05-19T10:43:49.044Z,22.24
2019-05-19T10:46:19.000Z,22.40
2019-05-19T10:51:28.859Z,22.54
2019-05-19T10:53:58.810Z,22.44
2019-05-19T10:56:28.760Z,22.87
2019-05-19T11:01:38.039Z,22.57
2019-05-19T11:04:08.321Z,22.73
2019-05-19T11:06:38.536Z,22.45
2019-05-19T11:09:08.490Z,22.54
2019-05-19T11:14:17.761Z,22.69
2019-05-19T11:16:47.698Z,22.93
2019-05-19T11:19:17.659Z,22.69
2019-05-19T11:21:47.596Z,22.98
2019-05-19T11:26:56.884Z,22.82
2019-05-19T11:29:26.825Z,23.15
2019-05-19T11:34:37.137Z,23.29
2019-05-19T11:37:07.517Z,23.54
2019-05-19T11:39:37.035Z,23.63
2019-05-19T11:42:07.340Z,23.40
2019-05-19T11:44:37.566Z,23.46
2019-05-19T11:47:07.776Z,23.23
2019-05-19T11:49:37.724Z,23.33
2019-05-19T11:52:08.014Z,23.37
2019-05-19T11:54:37.968Z,23.50
2019-05-19T11:57:07.905Z,23.32
2019-05-19T11:59:37.855Z,23.34
2019-05-19T12:02:08.220Z,23.33
2019-05-19T12:04:38.027Z,23.42
2019-05-19T12:07:07.948Z,23.58
2019-05-19T12:09:37.891Z,23.65
2019-05-19T12:12:08.138Z,23.59
2019-05-19T12:14:38.091Z,23.77
2019-05-19T12:17:08.258Z,23.89
2019-05-19T12:19:38.024Z,23.70
2019-05-19T12:24:47.572Z,23.91
2019-05-19T12:27:17.506Z,23.69
2019-05-19T12:29:47.461Z,23.73
2019-05-19T12:34:56.753Z,23.93
2019-05-19T12:37:26.705Z,23.92
2019-05-19T12:39:56.667Z,23.69
2019-05-19T12:42:26.609Z,23.82
2019-05-19T12:44:56.668Z,23.78
2019-05-19T12:47:26.486Z,23.74
2019-05-19T12:49:56.806Z,23.69
2019-05-19T12:55:06.498Z,23.89
2019-05-19T12:57:36.809Z,23.82
2019-05-19T13:00:06.735Z,23.72
2019-05-19T13:02:38.190Z,23.90
2019-05-19T13:07:47.057Z,23.90
2019-05-19T13:10:17.340Z,23.98
2019-05-19T13:12:46.950Z,23.78
2019-05-19T13:15:17.232Z,23.70
2019-05-19T13:20:26.534Z,23.56
2019-05-19T13:22:56.464Z,23.65
2019-05-19T13:25:26.449Z,23.39
2019-05-19T13:27:56.628Z,23.27
2019-05-19T13:30:26.642Z,23.03
2019-05-19T13:32:56.499Z,23.06
2019-05-19T13:35:26.828Z,22.83
2019-05-19T13:37:56.713Z,22.83
2019-05-19T13:40:26.641Z,22.68
2019-05-19T13:45:35.931Z,22.83
2019-05-19T13:48:05.863Z,22.64
2019-05-19T13:53:15.128Z,22.64
2019-05-19T13:58:24.412Z,22.33
2019-05-19T14:00:54.688Z,22.34
2019-05-19T14:03:24.609Z,22.07
2019-05-19T14:05:54.939Z,22.35
2019-05-19T14:11:04.583Z,21.97
2019-05-19T14:13:34.550Z,22.15
2019-05-19T14:16:04.876Z,22.07
2019-05-19T14:21:14.244Z,21.73
2019-05-19T14:23:44.451Z,21.46
2019-05-19T14:26:14.394Z,21.55
2019-05-19T14:28:44.624Z,21.12
2019-05-19T14:31:14.604Z,20.36
2019-05-19T14:36:24.197Z,20.09
2019-05-19T14:38:54.129Z,19.98
2019-05-19T14:41:33.238Z,20.05
2019-05-19T14:43:54.261Z,19.79
2019-05-19T14:46:24.214Z,19.86
2019-05-19T14:48:54.470Z,19.99
2019-05-19T14:51:24.445Z,19.80
2019-05-19T14:53:54.721Z,19.78
2019-05-19T14:56:24.945Z,19.83
2019-05-19T14:58:54.923Z,19.59
2019-05-19T15:01:25.024Z,19.59
2019-05-19T15:03:55.298Z,19.52
2019-05-19T15:06:25.249Z,19.48
2019-05-19T15:08:55.189Z,19.22
2019-05-19T15:11:25.141Z,19.26
2019-05-19T15:13:55.189Z,19.19
2019-05-19T15:16:25.103Z,18.87
2019-05-19T15:18:55.379Z,18.70
2019-05-19T15:21:25.336Z,18.79
2019-05-19T15:23:55.533Z,18.86
2019-05-19T15:26:25.727Z,18.94
2019-05-19T15:28:55.671Z,19.05
2019-05-19T15:31:25.603Z,19.05
2019-05-19T15:36:35.198Z,18.73
2019-05-19T15:39:05.168Z,18.82
2019-05-19T15:41:35.208Z,18.92
2019-05-19T15:44:05.059Z,18.92
2019-05-19T15:46:35.298Z,18.82
2019-05-19T15:49:05.785Z,18.94
2019-05-19T15:51:37.719Z,19.17
2019-05-19T15:54:05.980Z,19.26
2019-05-19T15:56:36.266Z,19.04
2019-05-19T15:59:06.222Z,18.91
2019-05-19T16:01:36.171Z,19.11
2019-05-19T16:04:06.412Z,19.10
2019-05-19T16:06:39.021Z,18.97
2019-05-19T16:09:06.333Z,18.80
2019-05-19T16:11:36.291Z,18.76
2019-05-19T16:14:06.245Z,18.81
2019-05-19T16:16:36.174Z,18.78
2019-05-19T16:19:06.438Z,18.82
2019-05-19T16:21:36.358Z,18.85
2019-05-19T16:24:08.130Z,18.87
2019-05-19T16:26:38.065Z,18.69
2019-05-19T16:29:08.289Z,18.45
2019-05-19T16:31:38.562Z,18.53
2019-05-19T16:34:08.868Z,18.43
2019-05-19T16:36:38.781Z,18.46
2019-05-19T16:39:08.719Z,18.59
2019-05-19T16:41:38.695Z,18.49
2019-05-19T16:44:09.226Z,18.57
2019-05-19T16:46:39.155Z,18.57
2019-05-19T16:49:09.117Z,18.66
2019-05-19T16:51:39.062Z,18.65
2019-05-19T16:54:09.290Z,18.55
2019-05-19T16:56:39.220Z,18.57
2019-05-19T16:59:09.175Z,18.67
2019-05-19T17:01:39.101Z,18.50
2019-05-19T17:04:09.040Z,18.45
2019-05-19T17:06:38.966Z,18.22
2019-05-19T17:11:48.237Z,18.17
2019-05-19T17:14:18.198Z,18.23
2019-05-19T17:16:48.106Z,18.11
2019-05-19T17:19:18.064Z,18.27
2019-05-19T17:21:48.182Z,17.88
2019-05-19T17:24:18.104Z,17.76
2019-05-19T17:26:48.033Z,17.48
2019-05-19T17:29:18.323Z,17.88
2019-05-19T17:31:48.252Z,17.64
2019-05-19T17:34:18.280Z,17.32
2019-05-19T17:36:48.174Z,17.37
2019-05-19T17:39:18.097Z,17.37
2019-05-19T17:41:48.019Z,17.60
2019-05-19T17:44:17.959Z,17.53
2019-05-19T17:46:48.222Z,17.49
2019-05-19T17:49:18.173Z,17.41
2019-05-19T17:51:48.110Z,17.34
2019-05-19T17:56:57.639Z,17.26
2019-05-19T17:59:27.844Z,17.36
2019-05-19T18:01:57.774Z,17.16
2019-05-19T18:04:27.726Z,17.16
2019-05-19T18:06:57.717Z,17.27
2019-05-19T18:09:27.999Z,17.18
2019-05-19T18:11:57.958Z,17.12
2019-05-19T18:14:27.880Z,17.19
2019-05-19T18:16:58.138Z,17.19
2019-05-19T18:19:28.138Z,17.10
2019-05-19T18:24:37.362Z,17.14
2019-05-19T18:27:07.301Z,16.98
2019-05-19T18:29:37.800Z,17.00
2019-05-19T18:32:07.726Z,16.85
2019-05-19T18:34:37.990Z,16.67
2019-05-19T18:37:07.914Z,16.44
2019-05-19T18:39:37.849Z,16.56
2019-05-19T18:42:07.782Z,16.58
2019-05-19T18:44:37.717Z,16.61
2019-05-19T18:47:07.951Z,16.61
2019-05-19T18:49:37.946Z,16.52
2019-05-19T18:54:47.199Z,16.51
2019-05-19T18:57:17.150Z,16.19
2019-05-19T18:59:47.938Z,16.37
2019-05-19T19:02:17.020Z,16.49
2019-05-19T19:04:46.972Z,16.42
2019-05-19T19:07:16.878Z,16.37
2019-05-19T19:09:46.823Z,16.38
2019-05-19T19:12:16.751Z,16.09
2019-05-19T19:14:47.045Z,16.07
2019-05-19T19:17:16.988Z,16.11
2019-05-19T19:19:46.920Z,16.19
2019-05-19T19:22:16.836Z,16.14
2019-05-19T19:24:46.776Z,16.21
2019-05-19T19:27:16.706Z,15.91
2019-05-19T19:30:01.927Z,15.95
2019-05-19T19:34:56.473Z,15.91
2019-05-19T19:37:26.412Z,15.85
2019-05-19T19:42:35.693Z,16.34
2019-05-19T19:45:05.626Z,16.69
2019-05-19T19:47:35.558Z,16.43
2019-05-19T19:50:08.491Z,16.37
2019-05-19T19:55:17.774Z,16.44
2019-05-19T19:57:47.702Z,16.26
2019-05-19T20:03:02.526Z,16.39
2019-05-19T20:05:32.484Z,16.37
2019-05-19T20:08:02.734Z,16.45
2019-05-19T20:10:32.681Z,16.29
2019-05-19T20:13:02.611Z,16.18
2019-05-19T20:15:32.921Z,16.35
2019-05-19T20:18:03.053Z,16.34
2019-05-19T20:20:32.995Z,16.37
2019-05-19T20:23:03.266Z,16.23
2019-05-19T20:28:12.522Z,16.33
2019-05-19T20:33:21.827Z,16.28
2019-05-19T20:35:51.770Z,16.19
2019-05-19T20:38:21.698Z,15.94
2019-05-19T20:40:51.655Z,16.08
2019-05-19T20:43:21.691Z,16.29
2019-05-19T20:45:51.619Z,16.31
2019-05-19T20:51:01.175Z,16.32
2019-05-19T20:53:31.108Z,16.16
2019-05-19T20:56:01.127Z,16.00
2019-05-19T20:58:31.072Z,15.94
2019-05-19T21:01:01.315Z,15.80
2019-05-19T21:03:31.226Z,15.84
2019-05-19T21:08:40.883Z,15.71
2019-05-19T21:11:10.836Z,15.67
2019-05-19T21:13:40.765Z,15.71
2019-05-19T21:16:10.707Z,15.58
2019-05-19T21:18:40.677Z,15.63
2019-05-19T21:21:10.984Z,15.69
2019-05-19T21:23:40.907Z,15.61
2019-05-19T21:26:11.200Z,15.68
2019-05-19T21:28:41.419Z,15.63
2019-05-19T21:31:11.356Z,15.66
2019-05-19T21:33:41.290Z,15.59
2019-05-19T21:36:11.220Z,15.52
2019-05-19T21:41:20.614Z,15.48
2019-05-19T21:46:29.925Z,15.26
2019-05-19T21:51:39.202Z,15.05
2019-05-19T21:54:09.478Z,15.12
2019-05-19T21:56:39.413Z,15.17
2019-05-19T21:59:09.351Z,15.05
2019-05-19T22:01:39.294Z,14.89
2019-05-19T22:04:09.216Z,14.75
2019-05-19T22:06:39.506Z,14.92
2019-05-19T22:11:48.800Z,14.98
2019-05-19T22:14:18.730Z,14.81
2019-05-19T22:16:48.680Z,14.73
2019-05-19T22:21:57.945Z,14.82
2019-05-19T22:24:28.177Z,14.87
2019-05-19T22:26:58.129Z,14.78
2019-05-19T22:32:07.378Z,14.79
2019-05-19T22:34:37.315Z,14.70
2019-05-19T22:37:07.258Z,14.66
2019-05-19T22:39:37.197Z,14.63
2019-05-19T22:42:07.130Z,14.74
2019-05-19T22:44:37.050Z,14.65
2019-05-19T22:47:06.998Z,14.60
2019-05-19T22:49:37.224Z,14.65
2019-05-19T22:52:07.174Z,14.66
2019-05-19T22:54:37.123Z,14.88
2019-05-19T22:57:07.054Z,14.58
2019-05-19T22:59:37.282Z,14.57
2019-05-19T23:02:09.242Z,14.53
2019-05-19T23:04:37.515Z,14.49
2019-05-19T23:07:07.441Z,14.47
2019-05-19T23:09:37.385Z,14.39
2019-05-19T23:14:47.008Z,13.84
2019-05-19T23:17:16.962Z,13.99
2019-05-19T23:19:46.903Z,13.85
2019-05-19T23:24:56.161Z,14.28
2019-05-19T23:27:26.105Z,14.12
2019-05-19T23:29:56.046Z,14.23
2019-05-19T23:35:08.152Z,14.06
2019-05-19T23:37:38.125Z,14.10
2019-05-19T23:40:08.054Z,14.18
2019-05-19T23:45:17.618Z,13.98
2019-05-19T23:47:47.537Z,13.96
2019-05-19T23:50:17.518Z,13.90
2019-05-19T23:55:26.799Z,13.97
2019-05-19T23:57:56.720Z,13.81
